Time;durP1;ratioP1;P1;durP2;ratioP2;P2;SDS_P1;SDS_P2;PMS_P1;PMS_P2;Temp;Humidity;BMP_temperature;BMP_pressure;BME280_temperature;BME280_humidity;BME280_pressure;Samples;Min_cycle;Max_cycle;Signal;HPM_P1;HPM_P2
2023/12/29 00:01:56;;;;;;;17.92;3.10;;;9.70;99.90;;;;;;5095919;28;20040;-85
2023/12/29 00:04:22;;;;;;;15.23;2.85;;;10.00;99.90;;;;;;5095744;28;20051;-85
2023/12/29 00:06:48;;;;;;;14.82;2.22;;;9.80;99.90;;;;;;5097998;28;20047;-85
2023/12/29 00:09:19;;;;;;;19.25;2.20;;;10.40;99.90;;;;;;5081227;28;20384;-85
2023/12/29 00:11:47;;;;;;;15.90;2.33;;;9.60;99.90;;;;;;5093441;28;20040;-85
2023/12/29 00:14:13;;;;;;;19.70;3.08;;;9.60;99.90;;;;;;5078256;28;20044;-85
2023/12/29 00:16:39;;;;;;;17.27;2.33;;;9.80;99.90;;;;;;5097484;28;20039;-85
2023/12/29 00:19:04;;;;;;;20.50;2.97;;;9.80;99.90;;;;;;5097833;28;20079;-85
2023/12/29 00:21:30;;;;;;;16.80;2.83;;;10.30;99.90;;;;;;5097418;28;20066;-85
2023/12/29 00:23:56;;;;;;;16.70;2.15;;;9.70;99.90;;;;;;5097773;28;20205;-85
2023/12/29 00:26:22;;;;;;;20.13;3.15;;;10.20;99.90;;;;;;5096538;28;20048;-85
2023/12/29 00:28:48;;;;;;;14.10;2.28;;;9.70;99.90;;;;;;5115724;28;20114;-85
2023/12/29 00:31:17;;;;;;;16.75;2.35;;;9.90;99.90;;;;;;5095136;28;20468;-86
2023/12/29 00:33:45;;;;;;;17.33;2.42;;;9.80;99.90;;;;;;5087743;28;20046;-85
2023/12/29 00:36:16;;;;;;;24.40;3.13;;;9.80;99.90;;;;;;5097629;28;20043;-85
2023/12/29 00:38:42;;;;;;;18.63;2.80;;;10.10;99.90;;;;;;5097207;28;20100;-85
2023/12/29 00:41:07;;;;;;;18.27;2.80;;;9.70;99.90;;;;;;5097287;28;20519;-85
2023/12/29 00:43:33;;;;;;;14.63;2.75;;;9.90;99.90;;;;;;5097119;28;20051;-84
2023/12/29 00:46:01;;;;;;;16.27;2.90;;;10.20;99.90;;;;;;5080461;28;20044;-85
2023/12/29 00:48:27;;;;;;;14.10;2.15;;;10.00;99.90;;;;;;5114139;28;20372;-85
2023/12/29 00:50:53;;;;;;;14.88;2.03;;;9.70;99.90;;;;;;5095616;28;20035;-85
2023/12/29 00:53:18;;;;;;;11.60;1.95;;;9.70;99.90;;;;;;5082564;28;20043;-85
2023/12/29 00:55:44;;;;;;;12.80;2.20;;;9.80;99.90;;;;;;5096878;28;20044;-85
2023/12/29 00:58:09;;;;;;;13.52;2.28;;;9.80;99.90;;;;;;5095347;28;20107;-85
2023/12/29 01:00:35;;;;;;;13.10;1.95;;;9.60;99.90;;;;;;5096273;28;20043;-85
2023/12/29 01:03:01;;;;;;;17.20;2.50;;;10.10;99.90;;;;;;5095960;28;20031;-85
2023/12/29 01:05:27;;;;;;;26.67;2.83;;;9.60;99.90;;;;;;5079769;28;20450;-85
2023/12/29 01:07:54;;;;;;;17.55;2.40;;;9.70;99.90;;;;;;5096700;28;20373;-85
2023/12/29 01:10:20;;;;;;;12.65;2.20;;;9.70;99.90;;;;;;5096611;28;20130;-85
2023/12/29 01:12:46;;;;;;;13.93;2.10;;;9.60;99.90;;;;;;5092142;28;20127;-85
2023/12/29 01:15:11;;;;;;;17.08;2.38;;;9.60;99.90;;;;;;5096070;28;20377;-84
2023/12/29 01:17:37;;;;;;;18.50;2.88;;;9.90;99.90;;;;;;5096719;28;20039;-86
2023/12/29 01:20:04;;;;;;;18.55;2.00;;;10.70;99.90;;;;;;5114697;28;20512;-85
2023/12/29 01:22:30;;;;;;;18.58;3.10;;;9.70;99.90;;;;;;5096334;28;20036;-85
2023/12/29 01:24:55;;;;;;;16.27;2.72;;;10.40;99.90;;;;;;5096513;28;20051;-85
2023/12/29 01:27:21;;;;;;;20.52;2.67;;;9.70;99.90;;;;;;5067947;28;20039;-85
2023/12/29 01:29:47;;;;;;;14.45;2.30;;;9.70;99.90;;;;;;5103337;28;20040;-85
2023/12/29 01:32:14;;;;;;;14.23;2.17;;;10.40;99.90;;;;;;5095086;28;20448;-85
2023/12/29 01:34:39;;;;;;;14.60;3.47;;;10.10;99.90;;;;;;5114675;28;20122;-86
2023/12/29 01:37:05;;;;;;;12.60;2.13;;;9.60;99.90;;;;;;5096188;28;20189;-85
2023/12/29 01:39:31;;;;;;;25.83;2.70;;;9.90;99.90;;;;;;5114327;28;20039;-85
2023/12/29 01:41:56;;;;;;;18.55;2.42;;;9.50;99.90;;;;;;5095920;28;20512;-85
2023/12/29 01:44:23;;;;;;;12.55;2.55;;;10.40;99.90;;;;;;5108662;28;20042;-84
2023/12/29 01:46:54;;;;;;;18.40;2.60;;;10.00;99.90;;;;;;5090523;28;20043;-85
2023/12/29 01:49:21;;;;;;;15.32;2.88;;;10.00;99.90;;;;;;5095368;28;20040;-85
2023/12/29 01:51:52;;;;;;;22.77;2.63;;;9.80;99.90;;;;;;5096054;28;20105;-85
2023/12/29 01:54:20;;;;;;;21.00;3.28;;;9.80;99.90;;;;;;5095913;28;20048;-85
2023/12/29 01:56:48;;;;;;;15.15;3.75;;;9.50;99.90;;;;;;5110568;28;20047;-85
2023/12/29 01:59:14;;;;;;;20.27;3.33;;;9.50;99.90;;;;;;5099136;28;20090;-85
2023/12/29 02:01:40;;;;;;;20.35;3.60;;;9.70;99.90;;;;;;5095641;28;20107;-84
2023/12/29 02:04:07;;;;;;;21.08;4.05;;;10.00;99.90;;;;;;5095711;28;20043;-85
2023/12/29 02:06:35;;;;;;;18.00;2.58;;;10.00;99.90;;;;;;5076980;28;20396;-85
2023/12/29 02:09:03;;;;;;;9.73;1.88;;;9.70;99.90;;;;;;5065821;28;20040;-85
2023/12/29 02:11:30;;;;;;;15.77;2.72;;;9.80;99.90;;;;;;5075408;28;20180;-85
2023/12/29 02:13:56;;;;;;;14.05;1.75;;;9.70;99.90;;;;;;5079743;28;20071;-85
2023/12/29 02:16:33;;;;;;;10.82;2.20;;;10.10;99.90;;;;;;5095761;28;20062;-85
2023/12/29 02:19:01;;;;;;;11.32;1.73;;;9.50;99.90;;;;;;5103547;28;20040;-85
2023/12/29 02:21:26;;;;;;;11.38;1.38;;;9.50;99.90;;;;;;5090448;28;20065;-85
2023/12/29 02:23:52;;;;;;;9.95;1.60;;;9.70;99.90;;;;;;5095422;28;20035;-85
2023/12/29 02:26:22;;;;;;;7.85;1.25;;;9.50;99.90;;;;;;5113749;28;20039;-85
2023/12/29 02:28:56;;;;;;;9.43;1.00;;;9.40;99.90;;;;;;5093520;28;20039;-85
2023/12/29 02:31:26;;;;;;;11.13;1.70;;;9.40;99.90;;;;;;5100054;28;20043;-85
2023/12/29 02:33:53;;;;;;;11.00;1.30;;;10.00;99.90;;;;;;5094977;28;20069;-84
2023/12/29 02:36:21;;;;;;;9.10;1.40;;;9.60;99.90;;;;;;5078200;28;20089;-85
2023/12/29 02:38:46;;;;;;;12.23;1.75;;;9.20;99.90;;;;;;5093509;28;20043;-86
2023/12/29 02:41:15;;;;;;;10.25;1.50;;;9.90;99.90;;;;;;5077297;28;20407;-85
2023/12/29 02:43:41;;;;;;;17.00;1.65;;;9.10;99.90;;;;;;5074868;28;20085;-86
2023/12/29 02:46:07;;;;;;;16.08;2.20;;;9.10;99.90;;;;;;5081320;28;20039;-86
2023/12/29 02:48:32;;;;;;;16.30;1.88;;;9.50;99.90;;;;;;5095253;28;20048;-85
2023/12/29 02:50:58;;;;;;;23.10;2.40;;;9.10;99.90;;;;;;5087217;28;20447;-86
2023/12/29 02:53:24;;;;;;;19.25;1.95;;;10.00;99.90;;;;;;5111373;28;20039;-86
2023/12/29 02:55:49;;;;;;;17.98;2.17;;;9.00;99.90;;;;;;5095410;28;20054;-85
2023/12/29 02:58:15;;;;;;;21.80;2.22;;;9.10;99.90;;;;;;5113025;28;20051;-85
2023/12/29 03:00:41;;;;;;;16.33;2.05;;;9.40;99.90;;;;;;5092958;28;20036;-85
2023/12/29 03:03:06;;;;;;;15.43;2.08;;;9.30;99.90;;;;;;5077324;28;20112;-85
2023/12/29 03:05:32;;;;;;;14.80;1.88;;;9.30;99.90;;;;;;5092554;28;20084;-85
2023/12/29 03:07:58;;;;;;;17.52;2.47;;;8.90;99.90;;;;;;5090948;28;20475;-85
2023/12/29 03:10:23;;;;;;;16.35;1.80;;;9.10;99.90;;;;;;5092958;28;20075;-85
2023/12/29 03:12:49;;;;;;;11.93;2.80;;;8.90;99.90;;;;;;5111641;28;20027;-85
2023/12/29 03:15:15;;;;;;;17.70;2.28;;;8.90;99.90;;;;;;5106041;28;20036;-85
2023/12/29 03:17:40;;;;;;;21.77;2.58;;;9.20;99.90;;;;;;5081390;28;20045;-85
2023/12/29 03:20:07;;;;;;;21.33;3.00;;;9.50;99.90;;;;;;5099184;28;20075;-86
2023/12/29 03:22:33;;;;;;;21.13;3.95;;;9.00;99.90;;;;;;5082705;28;20058;-85
2023/12/29 03:24:59;;;;;;;25.25;3.65;;;9.40;99.90;;;;;;5100257;28;20477;-85
2023/12/29 03:27:24;;;;;;;21.23;3.40;;;9.00;99.90;;;;;;5101434;28;20047;-85
2023/12/29 03:29:50;;;;;;;23.90;3.72;;;8.90;99.90;;;;;;5119421;28;20046;-86
2023/12/29 03:32:17;;;;;;;31.90;3.75;;;9.60;99.90;;;;;;5099575;28;20048;-85
2023/12/29 03:34:43;;;;;;;28.90;4.07;;;9.00;99.90;;;;;;5088184;28;20036;-85
2023/12/29 03:37:09;;;;;;;25.95;4.30;;;9.00;99.90;;;;;;5080655;28;20047;-85
2023/12/29 03:39:35;;;;;;;33.95;4.43;;;9.00;99.90;;;;;;5086757;28;20078;-85
2023/12/29 03:42:01;;;;;;;34.00;5.63;;;9.70;99.90;;;;;;5101034;28;20453;-85
2023/12/29 03:44:27;;;;;;;30.38;4.57;;;9.80;99.90;;;;;;5112422;28;20067;-85
2023/12/29 03:46:52;;;;;;;22.58;4.82;;;9.30;99.90;;;;;;5098980;28;20082;-86
2023/12/29 03:49:19;;;;;;;27.30;3.75;;;9.20;99.90;;;;;;5080948;28;20036;-84
2023/12/29 03:51:46;;;;;;;30.10;4.07;;;9.30;99.90;;;;;;5098987;28;20040;-85
2023/12/29 03:54:11;;;;;;;28.13;4.05;;;10.10;99.90;;;;;;5081684;28;20083;-85
2023/12/29 03:56:37;;;;;;;24.60;4.15;;;10.20;99.90;;;;;;5084951;28;20110;-85
2023/12/29 03:59:03;;;;;;;26.23;3.90;;;9.80;99.90;;;;;;5073940;28;20392;-85
2023/12/29 04:01:28;;;;;;;32.70;3.70;;;9.40;99.90;;;;;;5101160;28;20047;-85
2023/12/29 04:03:54;;;;;;;28.17;3.70;;;9.20;99.90;;;;;;5100860;28;20036;-85
2023/12/29 04:06:20;;;;;;;24.73;3.33;;;9.90;99.90;;;;;;5090864;28;20040;-85
2023/12/29 04:08:46;;;;;;;20.30;3.50;;;9.30;99.90;;;;;;5080518;28;20135;-84
2023/12/29 04:11:11;;;;;;;21.80;3.50;;;9.30;99.90;;;;;;5080405;28;20497;-85
2023/12/29 04:13:37;;;;;;;25.70;3.50;;;9.10;99.90;;;;;;5107048;28;20092;-85
2023/12/29 04:16:03;;;;;;;27.88;3.55;;;9.00;99.90;;;;;;5117442;28;20036;-83
2023/12/29 04:18:29;;;;;;;22.40;3.90;;;9.00;99.90;;;;;;5078538;28;20403;-84
2023/12/29 04:20:55;;;;;;;29.73;4.47;;;9.80;99.90;;;;;;5100831;28;20476;-85
2023/12/29 04:23:21;;;;;;;23.70;3.33;;;9.90;99.90;;;;;;5080947;28;20047;-85
2023/12/29 04:25:47;;;;;;;23.17;3.97;;;9.60;99.90;;;;;;5095809;28;20112;-85
2023/12/29 04:28:13;;;;;;;27.05;4.18;;;9.00;99.90;;;;;;5085816;28;20040;-84
2023/12/29 04:30:38;;;;;;;29.95;4.10;;;9.40;99.90;;;;;;5095438;28;20466;-85
2023/12/29 04:33:04;;;;;;;25.83;4.93;;;9.10;99.90;;;;;;5089003;28;21890;-85
2023/12/29 04:35:30;;;;;;;28.25;5.05;;;9.00;99.90;;;;;;5115006;28;20038;-84
2023/12/29 04:37:56;;;;;;;22.67;3.58;;;9.50;99.90;;;;;;5110259;28;20139;-84
2023/12/29 04:40:21;;;;;;;21.42;3.63;;;9.60;99.90;;;;;;5096644;28;20473;-85
2023/12/29 04:42:47;;;;;;;27.92;3.22;;;9.00;99.90;;;;;;5080717;28;20035;-85
2023/12/29 04:45:13;;;;;;;24.45;3.92;;;9.20;99.90;;;;;;5097444;28;20103;-85
2023/12/29 04:47:39;;;;;;;21.83;3.97;;;9.30;99.90;;;;;;5094041;27;20499;-85
2023/12/29 04:50:08;;;;;;;23.00;3.20;;;9.60;99.90;;;;;;5111598;28;20040;-85
2023/12/29 04:52:34;;;;;;;32.85;3.67;;;9.10;99.90;;;;;;5096670;28;20428;-85
2023/12/29 04:55:00;;;;;;;28.20;4.03;;;9.50;99.90;;;;;;5115265;28;20044;-85
2023/12/29 04:57:25;;;;;;;25.65;3.42;;;9.00;99.90;;;;;;5096839;28;20055;-85
2023/12/29 04:59:51;;;;;;;31.60;3.75;;;9.20;99.90;;;;;;5094692;28;20480;-84
2023/12/29 05:02:17;;;;;;;28.38;3.63;;;9.50;99.90;;;;;;5087820;28;20048;-85
2023/12/29 05:04:43;;;;;;;17.95;3.28;;;9.10;99.90;;;;;;5096688;28;20054;-86
2023/12/29 05:07:09;;;;;;;29.02;4.30;;;9.20;99.90;;;;;;5112329;28;20044;-84
2023/12/29 05:09:35;;;;;;;23.58;4.40;;;9.00;99.90;;;;;;5102088;28;20114;-85
2023/12/29 05:12:01;;;;;;;19.92;3.15;;;9.00;99.90;;;;;;5076324;28;20050;-85
2023/12/29 05:14:27;;;;;;;26.77;4.28;;;9.00;99.90;;;;;;5076715;28;20048;-86
2023/12/29 05:16:52;;;;;;;27.00;3.05;;;9.10;99.90;;;;;;5076253;28;20108;-85
2023/12/29 05:19:18;;;;;;;21.73;3.70;;;9.70;99.90;;;;;;5099504;28;20035;-85
2023/12/29 05:21:44;;;;;;;20.42;3.03;;;9.00;99.90;;;;;;5114034;28;20096;-85
2023/12/29 05:24:10;;;;;;;18.83;2.72;;;9.70;99.90;;;;;;5114138;28;20868;-85
2023/12/29 05:26:35;;;;;;;26.90;3.60;;;9.60;99.90;;;;;;5096165;28;20163;-85
2023/12/29 05:29:02;;;;;;;25.02;3.38;;;9.10;99.90;;;;;;5094590;28;20093;-85
2023/12/29 05:31:27;;;;;;;30.48;4.15;;;9.80;99.90;;;;;;5063175;28;20079;-85
2023/12/29 05:33:55;;;;;;;24.83;3.08;;;9.40;99.90;;;;;;5075661;28;20071;-85
2023/12/29 05:36:21;;;;;;;31.58;4.22;;;9.20;99.90;;;;;;5059260;28;20541;-85
2023/12/29 05:38:46;;;;;;;16.25;2.83;;;9.10;99.90;;;;;;5084208;28;20122;-84
2023/12/29 05:41:15;;;;;;;22.23;4.13;;;9.10;99.90;;;;;;5102053;28;20119;-85
2023/12/29 05:43:41;;;;;;;26.02;4.15;;;9.20;99.90;;;;;;5096030;28;20048;-84
2023/12/29 05:46:14;;;;;;;32.05;4.38;;;9.20;99.90;;;;;;5095955;28;20050;-85
2023/12/29 05:48:40;;;;;;;18.38;3.22;;;9.20;99.90;;;;;;5096111;28;20035;-85
2023/12/29 05:51:13;;;;;;;25.45;3.67;;;9.20;99.90;;;;;;5111403;28;20039;-84
2023/12/29 05:53:42;;;;;;;25.95;4.05;;;9.10;99.90;;;;;;5076852;28;20488;-84
2023/12/29 05:56:11;;;;;;;22.63;4.45;;;9.20;99.90;;;;;;5076544;28;20067;-84
2023/12/29 05:58:36;;;;;;;24.42;3.53;;;9.20;99.90;;;;;;5065697;28;20043;-85
2023/12/29 06:01:02;;;;;;;20.20;3.20;;;9.20;99.90;;;;;;5094067;28;20081;-84
2023/12/29 06:03:28;;;;;;;30.45;4.18;;;9.20;99.90;;;;;;5094975;28;20442;-85
2023/12/29 06:05:54;;;;;;;28.83;3.70;;;9.10;99.90;;;;;;5113237;28;20141;-85
2023/12/29 06:08:20;;;;;;;20.77;2.80;;;8.80;99.90;;;;;;5095902;28;20044;-85
2023/12/29 06:10:45;;;;;;;24.33;3.42;;;8.60;99.90;;;;;;5078784;28;20130;-86
2023/12/29 06:13:11;;;;;;;18.40;2.90;;;9.20;99.90;;;;;;5087417;28;20043;-85
2023/12/29 06:15:38;;;;;;;34.17;3.75;;;9.20;99.90;;;;;;5093600;28;20101;-85
2023/12/29 06:18:04;;;;;;;33.03;3.88;;;9.20;99.90;;;;;;5093494;28;20066;-85
2023/12/29 06:20:30;;;;;;;19.95;4.00;;;9.20;99.90;;;;;;5082668;28;20059;-86
2023/12/29 06:22:56;;;;;;;26.42;4.53;;;9.20;99.90;;;;;;5093781;28;20024;-84
2023/12/29 06:25:21;;;;;;;32.83;3.67;;;9.30;99.90;;;;;;5094734;28;20476;-85
2023/12/29 06:27:48;;;;;;;26.23;4.10;;;9.30;99.90;;;;;;5093543;28;20038;-84
2023/12/29 06:30:14;;;;;;;27.65;3.80;;;9.20;99.90;;;;;;5058674;28;20048;-85
2023/12/29 06:32:40;;;;;;;29.90;4.20;;;9.20;99.90;;;;;;5079404;28;20036;-84
2023/12/29 06:35:06;;;;;;;29.70;4.20;;;9.20;99.90;;;;;;5092466;28;20038;-85
2023/12/29 06:37:32;;;;;;;30.83;3.92;;;9.10;99.90;;;;;;5095015;28;20521;-83
2023/12/29 06:39:59;;;;;;;24.42;3.63;;;9.00;99.90;;;;;;5077461;28;20047;-85
2023/12/29 06:42:24;;;;;;;22.05;3.40;;;9.00;99.90;;;;;;5113129;28;20077;-85
2023/12/29 06:44:50;;;;;;;23.38;3.70;;;9.00;99.90;;;;;;5091406;28;20040;-86
2023/12/29 06:47:16;;;;;;;24.92;3.33;;;8.90;99.90;;;;;;5083525;28;20051;-85
2023/12/29 06:49:42;;;;;;;23.30;4.03;;;8.80;99.90;;;;;;5075100;28;20043;-86
2023/12/29 06:52:07;;;;;;;25.23;3.97;;;8.70;99.90;;;;;;5074845;28;20440;-85
2023/12/29 06:54:36;;;;;;;30.17;3.63;;;8.70;99.90;;;;;;5083889;28;20043;-85
2023/12/29 06:57:02;;;;;;;25.77;4.22;;;8.70;99.90;;;;;;5074492;28;20059;-85
2023/12/29 06:59:27;;;;;;;26.25;3.83;;;8.70;99.90;;;;;;5074734;28;20052;-86
2023/12/29 07:01:53;;;;;;;24.52;3.70;;;8.80;99.90;;;;;;5074750;28;20048;-85
2023/12/29 07:04:19;;;;;;;20.55;3.40;;;8.80;99.90;;;;;;5076360;28;20441;-84
2023/12/29 07:06:45;;;;;;;22.83;3.45;;;8.80;99.90;;;;;;5091336;28;20055;-87
2023/12/29 07:09:10;;;;;;;27.80;3.88;;;8.80;99.90;;;;;;5078174;28;20074;-86
2023/12/29 07:11:36;;;;;;;36.33;4.63;;;8.80;99.90;;;;;;5112791;28;20384;-87
2023/12/29 07:14:02;;;;;;;24.13;3.60;;;8.80;99.90;;;;;;5094027;28;20046;-85
2023/12/29 07:16:28;;;;;;;25.67;5.38;;;8.80;99.90;;;;;;5088892;28;20610;-88
2023/12/29 07:18:54;;;;;;;27.42;3.63;;;8.80;99.90;;;;;;5085048;28;20039;-85
2023/12/29 07:21:20;;;;;;;32.78;4.10;;;8.80;99.90;;;;;;5092534;28;20044;-85
2023/12/29 07:23:46;;;;;;;26.17;3.85;;;8.80;99.90;;;;;;5092740;28;20445;-86
2023/12/29 07:26:11;;;;;;;31.23;4.80;;;8.80;99.90;;;;;;5075348;28;20048;-85
2023/12/29 07:28:37;;;;;;;23.90;3.90;;;8.80;99.90;;;;;;5089627;28;20073;-86
2023/12/29 07:31:03;;;;;;;35.53;3.60;;;8.80;99.90;;;;;;5111821;28;20036;-85
2023/12/29 07:33:30;;;;;;;28.77;3.67;;;8.80;99.90;;;;;;5098735;28;20069;-85
2023/12/29 07:35:55;;;;;;;22.05;3.72;;;8.80;99.90;;;;;;5074412;28;20059;-85
2023/12/29 07:38:21;;;;;;;23.15;3.30;;;8.70;99.90;;;;;;5084999;28;20123;-84
2023/12/29 07:40:50;;;;;;;33.95;4.25;;;8.70;99.90;;;;;;5074581;28;20101;-86
2023/12/29 07:43:15;;;;;;;27.42;3.33;;;8.80;99.90;;;;;;5074126;28;20131;-83
2023/12/29 07:45:43;;;;;;;26.40;3.58;;;8.80;99.90;;;;;;5088451;28;20032;-85
2023/12/29 07:48:09;;;;;;;24.92;3.78;;;8.80;99.90;;;;;;5104165;28;20050;-85
2023/12/29 07:50:34;;;;;;;26.92;4.03;;;8.80;99.90;;;;;;5106589;28;20039;-85
2023/12/29 07:53:02;;;;;;;30.35;3.33;;;8.70;99.90;;;;;;5107333;28;20032;-85
2023/12/29 07:55:29;;;;;;;27.98;4.07;;;8.70;99.90;;;;;;5091734;28;20103;-86
2023/12/29 07:57:54;;;;;;;20.30;3.35;;;9.00;99.90;;;;;;5075542;28;20523;-85
2023/12/29 08:00:21;;;;;;;32.45;3.92;;;9.00;99.90;;;;;;5061504;28;20080;-86
2023/12/29 08:02:47;;;;;;;20.80;3.13;;;8.60;99.90;;;;;;5083200;28;20036;-86
2023/12/29 08:05:15;;;;;;;24.90;4.53;;;8.60;99.90;;;;;;5097780;28;20047;-85
2023/12/29 08:07:40;;;;;;;24.02;3.05;;;8.60;99.90;;;;;;5097767;28;20044;-85
2023/12/29 08:10:07;;;;;;;22.83;4.07;;;8.70;99.90;;;;;;5116171;28;20153;-85
2023/12/29 08:12:33;;;;;;;26.17;4.05;;;8.60;99.90;;;;;;5092467;28;20097;-86
2023/12/29 08:15:00;;;;;;;23.42;3.90;;;8.60;99.90;;;;;;5095780;28;20044;-85
2023/12/29 08:17:26;;;;;;;25.83;4.03;;;9.00;99.90;;;;;;5095836;28;20499;-85
2023/12/29 08:19:51;;;;;;;23.02;3.63;;;9.20;99.90;;;;;;5094649;28;20077;-85
2023/12/29 08:22:19;;;;;;;23.55;3.15;;;9.50;99.90;;;;;;5093068;28;20123;-86
2023/12/29 08:24:44;;;;;;;30.85;3.53;;;8.90;99.90;;;;;;5088798;28;20400;-84
2023/12/29 08:27:12;;;;;;;28.38;3.05;;;8.90;99.90;;;;;;5077494;28;20048;-85
2023/12/29 08:29:38;;;;;;;31.25;4.90;;;9.00;99.90;;;;;;5077221;28;20499;-85
2023/12/29 08:32:04;;;;;;;21.40;2.95;;;8.90;99.90;;;;;;5060758;28;20044;-84
2023/12/29 08:34:30;;;;;;;21.65;2.95;;;8.70;99.90;;;;;;5095666;28;20097;-84
2023/12/29 08:36:56;;;;;;;20.83;3.05;;;8.70;99.90;;;;;;5060644;28;20465;-85
2023/12/29 08:39:22;;;;;;;26.55;2.58;;;8.90;99.90;;;;;;5060335;28;20051;-84
2023/12/29 08:41:49;;;;;;;31.33;3.92;;;9.00;99.90;;;;;;5095237;28;20068;-84
2023/12/29 08:44:15;;;;;;;25.80;3.83;;;8.80;99.90;;;;;;5076949;28;20109;-85
2023/12/29 08:46:41;;;;;;;24.98;3.17;;;8.80;99.90;;;;;;5095132;28;20130;-85
2023/12/29 08:49:07;;;;;;;26.90;3.95;;;8.80;99.90;;;;;;5095257;28;20067;-85
2023/12/29 08:51:33;;;;;;;18.60;2.90;;;9.40;99.90;;;;;;5095222;28;20442;-85
2023/12/29 08:53:59;;;;;;;33.38;3.55;;;8.90;99.90;;;;;;5077282;28;20361;-85
2023/12/29 08:56:25;;;;;;;21.08;2.70;;;9.10;99.90;;;;;;5076592;28;20048;-85
2023/12/29 08:58:51;;;;;;;21.30;2.92;;;9.20;99.90;;;;;;5076738;28;20097;-85
2023/12/29 09:01:16;;;;;;;28.58;3.58;;;8.80;99.90;;;;;;5095145;28;20040;-84
2023/12/29 09:03:42;;;;;;;16.50;3.22;;;8.90;99.90;;;;;;5076728;28;20044;-85
2023/12/29 09:06:08;;;;;;;22.52;4.00;;;9.50;99.90;;;;;;5059857;28;20056;-85
2023/12/29 09:08:35;;;;;;;30.17;3.67;;;8.70;99.90;;;;;;5076335;28;20046;-85
2023/12/29 09:11:01;;;;;;;19.45;2.90;;;8.80;99.90;;;;;;5076431;28;20088;-85
2023/12/29 09:13:27;;;;;;;24.50;2.90;;;8.70;99.90;;;;;;5094590;28;20040;-85
2023/12/29 09:15:57;;;;;;;26.00;4.82;;;8.70;99.90;;;;;;5076464;28;20100;-85
2023/12/29 09:18:23;;;;;;;22.48;3.10;;;8.70;99.90;;;;;;5094639;28;20079;-85
2023/12/29 09:20:48;;;;;;;18.58;3.13;;;9.30;99.90;;;;;;5094613;28;20051;-85
2023/12/29 09:23:14;;;;;;;24.35;3.65;;;9.00;99.90;;;;;;5060034;28;20036;-85
2023/12/29 09:25:41;;;;;;;18.92;3.35;;;9.30;99.90;;;;;;5076207;28;20040;-85
2023/12/29 09:28:07;;;;;;;20.67;3.28;;;8.80;99.90;;;;;;5076307;28;20051;-85
2023/12/29 09:30:32;;;;;;;20.35;3.03;;;8.70;99.90;;;;;;5094533;28;20134;-85
2023/12/29 09:32:58;;;;;;;28.50;3.90;;;9.30;99.90;;;;;;5076227;28;20071;-85
2023/12/29 09:35:24;;;;;;;32.17;4.05;;;8.90;99.90;;;;;;5059346;28;20476;-85
2023/12/29 09:37:50;;;;;;;29.30;4.10;;;8.90;99.90;;;;;;5094150;28;20097;-85
2023/12/29 09:40:16;;;;;;;29.55;4.20;;;8.80;99.90;;;;;;5076021;28;20075;-85
2023/12/29 09:42:46;;;;;;;27.23;4.75;;;8.30;99.90;;;;;;5075812;28;20048;-86
2023/12/29 09:45:13;;;;;;;27.88;4.45;;;9.30;99.90;;;;;;5075936;28;20397;-85
2023/12/29 09:47:40;;;;;;;25.00;4.20;;;9.50;99.90;;;;;;5075801;28;20094;-85
2023/12/29 09:50:12;;;;;;;27.92;4.15;;;9.20;99.90;;;;;;5075879;28;20040;-85
2023/12/29 09:52:40;;;;;;;27.73;4.20;;;8.80;99.90;;;;;;5059187;28;20032;-85
2023/12/29 09:55:10;;;;;;;31.92;4.25;;;8.80;99.90;;;;;;5093893;28;20032;-85
2023/12/29 09:57:39;;;;;;;28.38;4.10;;;9.40;99.90;;;;;;5093629;28;20408;-85
2023/12/29 10:00:10;;;;;;;25.52;4.60;;;9.40;99.90;;;;;;5075675;28;20048;-85
2023/12/29 10:02:37;;;;;;;24.20;3.72;;;8.90;99.90;;;;;;5075692;28;20104;-85
2023/12/29 10:05:04;;;;;;;25.33;4.15;;;9.80;99.90;;;;;;5093716;28;20173;-85
2023/12/29 10:07:37;;;;;;;27.33;4.03;;;8.90;99.90;;;;;;5075508;28;20075;-84
2023/12/29 10:10:06;;;;;;;24.55;3.97;;;9.00;99.90;;;;;;5075470;28;20393;-85
2023/12/29 10:12:33;;;;;;;23.98;3.30;;;8.90;99.90;;;;;;5075631;28;20060;-84
2023/12/29 10:15:09;;;;;;;17.35;3.30;;;9.40;99.90;;;;;;5075231;28;20056;-84
2023/12/29 10:18:03;;;;;;;27.13;3.75;;;9.00;99.90;;;;;;5075772;28;20486;-84
2023/12/29 10:20:52;;;;;;;24.38;3.17;;;9.00;99.90;;;;;;5057866;28;20059;-85
2023/12/29 10:23:22;;;;;;;26.30;3.08;;;9.00;99.90;;;;;;5075300;28;20079;-84
2023/12/29 10:25:49;;;;;;;30.65;3.90;;;9.00;99.90;;;;;;5075270;28;20048;-85
2023/12/29 10:28:17;;;;;;;26.90;3.72;;;9.00;99.90;;;;;;5058645;28;20089;-84
2023/12/29 10:30:43;;;;;;;32.38;3.13;;;8.50;99.90;;;;;;5074855;28;20055;-85
2023/12/29 10:33:09;;;;;;;25.60;3.50;;;9.00;99.90;;;;;;5074921;28;20036;-85
2023/12/29 10:35:38;;;;;;;30.55;4.05;;;9.30;99.90;;;;;;5075242;28;20885;-85
2023/12/29 10:38:12;;;;;;;23.42;3.58;;;9.40;99.90;;;;;;5058251;28;20082;-85
2023/12/29 10:40:38;;;;;;;23.92;2.88;;;9.10;99.90;;;;;;5058017;28;20058;-84
2023/12/29 10:43:08;;;;;;;25.55;3.10;;;9.20;99.90;;;;;;5074692;28;20485;-85
2023/12/29 10:45:34;;;;;;;22.20;3.40;;;9.90;99.90;;;;;;5058572;28;20043;-84
2023/12/29 10:48:01;;;;;;;23.00;3.30;;;9.50;99.90;;;;;;5077804;28;20123;-86
2023/12/29 10:50:29;;;;;;;25.85;3.05;;;10.00;99.90;;;;;;5078327;28;20035;-85
2023/12/29 10:53:12;;;;;;;20.00;3.50;;;9.20;99.90;;;;;;5091383;28;20059;-85
2023/12/29 10:55:38;;;;;;;19.70;2.78;;;9.20;99.90;;;;;;5069037;28;20503;-85
2023/12/29 10:58:05;;;;;;;16.52;2.80;;;9.20;99.90;;;;;;5094384;28;20071;-84
2023/12/29 11:00:31;;;;;;;23.92;3.47;;;9.80;99.90;;;;;;5112952;28;20396;-84
2023/12/29 11:02:57;;;;;;;16.60;2.20;;;9.60;99.90;;;;;;5106630;28;20036;-84
2023/12/29 11:05:25;;;;;;;20.25;2.30;;;9.40;99.90;;;;;;5074446;28;20405;-85
2023/12/29 11:07:54;;;;;;;21.20;2.42;;;9.20;99.90;;;;;;5074402;28;20484;-84
2023/12/29 11:10:23;;;;;;;20.33;3.42;;;9.20;99.90;;;;;;5091663;28;20123;-85
2023/12/29 11:12:49;;;;;;;13.50;2.97;;;9.30;99.90;;;;;;5091510;28;20112;-84
2023/12/29 11:15:16;;;;;;;17.35;2.53;;;9.30;99.90;;;;;;5091196;28;20063;-84
2023/12/29 11:17:49;;;;;;;15.75;2.10;;;9.30;99.90;;;;;;5091489;28;20033;-85
2023/12/29 11:20:16;;;;;;;13.95;2.20;;;10.00;99.90;;;;;;5092589;28;20053;-86
2023/12/29 11:22:43;;;;;;;16.55;2.00;;;9.10;99.90;;;;;;5091146;28;20127;-85
2023/12/29 11:25:09;;;;;;;16.33;2.42;;;9.30;99.90;;;;;;5090987;28;20118;-85
2023/12/29 11:27:35;;;;;;;15.38;2.42;;;9.10;99.90;;;;;;5092756;28;20048;-85
2023/12/29 11:30:04;;;;;;;17.27;2.55;;;9.70;99.90;;;;;;5112797;28;20082;-84
2023/12/29 11:32:57;;;;;;;13.95;1.85;;;9.10;99.90;;;;;;5078843;28;20069;-85
2023/12/29 11:35:49;;;;;;;16.08;1.88;;;9.20;99.90;;;;;;5081060;28;20532;-85
2023/12/29 11:38:49;;;;;;;8.68;2.33;;;9.30;99.90;;;;;;5097926;28;20499;-84
2023/12/29 11:41:33;;;;;;;21.90;2.78;;;9.20;99.90;;;;;;5098654;28;20525;-84
2023/12/29 11:44:00;;;;;;;12.63;1.92;;;9.40;99.90;;;;;;5081669;28;20528;-84
2023/12/29 11:46:34;;;;;;;12.05;2.22;;;9.60;99.90;;;;;;5081339;28;20044;-85
2023/12/29 11:49:04;;;;;;;13.63;2.17;;;9.70;99.90;;;;;;5114870;28;20031;-84
2023/12/29 11:51:41;;;;;;;15.40;2.10;;;9.40;99.90;;;;;;5070211;28;20379;-85
2023/12/29 11:54:08;;;;;;;17.65;2.60;;;10.20;99.90;;;;;;5081248;28;20044;-85
2023/12/29 11:56:38;;;;;;;18.80;2.38;;;9.80;99.90;;;;;;5097820;28;20127;-85
2023/12/29 11:59:17;;;;;;;15.15;1.98;;;9.50;99.90;;;;;;5098024;28;20043;-85
2023/12/29 12:01:43;;;;;;;10.35;2.00;;;9.60;99.90;;;;;;5098058;28;20036;-84
2023/12/29 12:04:39;;;;;;;15.23;2.88;;;9.80;99.90;;;;;;5096480;28;20453;-84
2023/12/29 12:07:07;;;;;;;11.00;2.08;;;9.70;99.90;;;;;;5097869;28;20044;-84
2023/12/29 12:09:34;;;;;;;21.10;2.88;;;10.00;99.90;;;;;;5097989;28;20047;-84
2023/12/29 12:12:04;;;;;;;21.17;2.25;;;10.30;99.90;;;;;;5097691;28;20051;-85
2023/12/29 12:14:51;;;;;;;14.88;2.42;;;10.00;99.90;;;;;;5093428;28;20357;-85
2023/12/29 12:17:30;;;;;;;23.60;3.35;;;10.60;99.90;;;;;;5114721;27;20392;-84
2023/12/29 12:20:03;;;;;;;21.25;3.28;;;10.20;99.90;;;;;;5116042;28;20476;-84
2023/12/29 12:22:31;;;;;;;15.48;2.97;;;10.20;99.90;;;;;;5115166;28;20089;-84
2023/12/29 12:24:58;;;;;;;14.20;2.40;;;10.30;99.90;;;;;;5115871;28;20128;-84
2023/12/29 12:27:26;;;;;;;17.15;2.67;;;10.20;99.90;;;;;;5115934;28;20399;-84
2023/12/29 12:29:57;;;;;;;14.90;2.63;;;10.20;99.90;;;;;;5090774;28;20033;-83
2023/12/29 12:32:24;;;;;;;13.38;1.95;;;10.20;99.90;;;;;;5095244;28;20051;-84
2023/12/29 12:34:49;;;;;;;15.65;2.45;;;10.10;99.90;;;;;;5077092;28;20089;-84
2023/12/29 12:37:19;;;;;;;17.58;2.53;;;10.20;99.90;;;;;;5075713;28;20439;-84
2023/12/29 12:39:45;;;;;;;16.50;2.33;;;10.20;99.90;;;;;;5076765;28;20058;-84
2023/12/29 12:42:11;;;;;;;16.98;2.10;;;9.90;99.90;;;;;;5099447;28;20170;-84
2023/12/29 12:44:42;;;;;;;12.38;1.88;;;9.90;99.90;;;;;;5095885;28;20036;-83
2023/12/29 12:47:14;;;;;;;13.23;2.20;;;9.70;99.90;;;;;;5093811;28;20461;-84